Aviation Digital Data Service (ADDS)

Output produced by METARs form (0209 UTC 24 November 2017)
found at http://www.aviationweather.gov/adds/metars/
 
Forecast for: RODN (KADENA (USAFB-NA, JP)
Text: TAF RODN 240000Z 2400/2506 05009KT 9999 BKN035 QNH3014INS TX23/2405Z TN11/2418Z
Forecast period: 0000 UTC 24 November 2017 to 0600 UTC 25 November 2017
Forecast type: FROM: standard forecast or significant change
Winds: from the NE (50 degrees) at 10 MPH (9 knots; 4.7 m/s)
Visibility: 6 or more miles (10+ km)
Ceiling: 3500 feet AGL
Clouds: broken clouds at 3500 feet AGL
Weather: no significant weather forecast for this period